Time;durP1;ratioP1;P1;durP2;ratioP2;P2;SDS_P1;SDS_P2;PMS_P1;PMS_P2;Temp;Humidity;BMP_temperature;BMP_pressure;BME280_temperature;BME280_humidity;BME280_pressure;Samples;Min_cycle;Max_cycle;Signal;HPM_P1;HPM_P2
2022/05/01 00:01:23;;;;;;;15.05;12.13;;;;;;;8.91;70.91;102301.94;4974680;28;20043;-87
2022/05/01 00:03:49;;;;;;;15.38;11.93;;;;;;;8.91;70.75;102301.94;4982101;28;20029;-86
2022/05/01 00:06:14;;;;;;;18.40;11.40;;;;;;;8.93;70.54;102294.78;4988370;28;20609;-86
2022/05/01 00:08:41;;;;;;;15.50;11.75;;;;;;;8.94;70.53;102287.69;4975371;28;20029;-86
2022/05/01 00:11:10;;;;;;;13.30;11.00;;;;;;;8.94;70.76;102291.22;4959983;28;20074;-86
2022/05/01 00:13:35;;;;;;;16.33;12.57;;;;;;;8.92;70.81;102289.53;4978671;28;20649;-86
2022/05/01 00:16:02;;;;;;;16.30;11.73;;;;;;;8.83;71.16;102279.97;4979881;28;20090;-86
2022/05/01 00:18:27;;;;;;;15.18;11.40;;;;;;;8.86;71.33;102295.84;4987199;28;20035;-86
2022/05/01 00:20:53;;;;;;;17.10;12.40;;;;;;;8.84;71.33;102281.72;4980879;28;20073;-86
2022/05/01 00:23:19;;;;;;;15.68;12.05;;;;;;;8.84;71.22;102292.31;4981750;28;20029;-86
2022/05/01 00:25:45;;;;;;;17.90;12.63;;;;;;;8.78;71.39;102283.59;4962239;28;20117;-86
2022/05/01 00:28:11;;;;;;;17.17;12.60;;;;;;;8.83;71.41;102290.59;4981436;28;20125;-86
2022/05/01 00:30:37;;;;;;;16.73;12.18;;;;;;;8.82;71.25;102288.84;4981983;28;20034;-86
2022/05/01 00:38:31;;;;;;;16.38;12.23;;;;;;;8.77;71.39;102277.41;4988750;28;20046;-86
2022/05/01 00:40:57;;;;;;;17.45;12.32;;;;;;;8.77;71.92;102285.38;4998618;28;20026;-86
2022/05/01 00:43:23;;;;;;;15.30;12.70;;;;;;;8.71;71.98;102267.81;4989349;28;20038;-86
2022/05/01 00:45:49;;;;;;;18.92;12.68;;;;;;;8.71;71.93;102281.09;4979945;28;20038;-86
2022/05/01 00:48:15;;;;;;;14.40;11.82;;;;;;;8.68;72.01;102273.19;4981042;28;20384;-86
2022/05/01 00:50:41;;;;;;;15.20;11.93;;;;;;;8.65;71.92;102275.91;4980060;28;20030;-85
2022/05/01 00:53:07;;;;;;;16.60;11.38;;;;;;;8.70;71.95;102274.03;4988308;28;20030;-86
2022/05/01 00:55:33;;;;;;;16.48;12.30;;;;;;;8.75;72.20;102286.34;4983251;28;20130;-85
2022/05/01 00:58:01;;;;;;;17.92;12.38;;;;;;;8.76;72.52;102278.34;4988011;28;20040;-85
2022/05/01 01:00:26;;;;;;;15.88;11.95;;;;;;;8.79;72.09;102286.25;4989388;28;20053;-85
2022/05/01 01:02:52;;;;;;;17.30;12.43;;;;;;;8.76;72.46;102262.41;4985137;28;20480;-85
2022/05/01 01:05:17;;;;;;;16.05;11.63;;;;;;;8.83;72.33;102269.34;4989583;28;20169;-86
2022/05/01 01:07:42;;;;;;;15.55;12.60;;;;;;;8.85;71.73;102264.00;4984786;28;20054;-86
2022/05/01 01:10:09;;;;;;;14.23;12.10;;;;;;;8.85;71.81;102270.19;4988107;28;20049;-85
2022/05/01 01:15:19;;;;;;;15.38;12.10;;;;;;;8.78;72.01;102270.31;4983803;28;20069;-85
2022/05/01 01:17:46;;;;;;;17.13;12.35;;;;;;;8.67;72.15;102257.28;4988774;28;20505;-85
2022/05/01 01:20:17;;;;;;;18.25;13.07;;;;;;;8.62;72.66;102269.78;4984384;28;20476;-85
2022/05/01 01:22:45;;;;;;;15.02;12.63;;;;;;;8.59;72.65;102267.19;4987075;28;20155;-85
2022/05/01 01:25:11;;;;;;;16.60;12.02;;;;;;;8.53;72.87;102267.28;4980983;28;20030;-85
2022/05/01 01:27:40;;;;;;;19.48;12.27;;;;;;;8.43;73.20;102263.94;4981378;28;20056;-85
2022/05/01 01:32:50;;;;;;;13.85;11.93;;;;;;;8.38;74.00;102265.81;4972531;28;20073;-85
2022/05/01 01:35:20;;;;;;;16.05;12.70;;;;;;;8.35;74.20;102257.88;4983479;28;20058;-86
2022/05/01 01:37:46;;;;;;;19.10;12.82;;;;;;;8.32;74.05;102266.78;4979829;28;20072;-86
2022/05/01 01:40:21;;;;;;;17.38;13.40;;;;;;;8.22;74.31;102252.81;4986437;28;20064;-86
2022/05/01 01:42:50;;;;;;;16.63;12.40;;;;;;;8.26;74.65;102261.59;4970054;28;20514;-85
2022/05/01 01:45:15;;;;;;;18.00;12.77;;;;;;;8.26;74.53;102256.28;4987701;28;20121;-86
2022/05/01 01:47:40;;;;;;;15.82;12.48;;;;;;;8.26;74.90;102250.97;4981111;28;20556;-86
2022/05/01 01:50:06;;;;;;;16.05;12.48;;;;;;;8.26;75.16;102260.72;4985622;28;20061;-86
2022/05/01 01:52:35;;;;;;;18.73;13.15;;;;;;;8.23;75.31;102257.22;4987347;28;20053;-86
2022/05/01 01:55:00;;;;;;;20.25;13.35;;;;;;;8.21;75.22;102244.88;4987823;28;20031;-86
2022/05/01 01:57:25;;;;;;;16.83;13.35;;;;;;;8.21;75.33;102251.06;4982317;28;20138;-86
2022/05/01 01:59:51;;;;;;;18.30;12.55;;;;;;;8.18;75.33;102252.91;4981902;28;20030;-86
2022/05/01 02:02:16;;;;;;;16.20;13.10;;;;;;;8.18;75.28;102250.25;4978958;28;20038;-86
2022/05/01 02:04:42;;;;;;;19.13;13.05;;;;;;;8.13;75.41;102260.94;4962135;28;20041;-86
2022/05/01 02:07:07;;;;;;;16.88;12.75;;;;;;;8.10;75.54;102246.84;4986873;28;20041;-86
2022/05/01 02:09:36;;;;;;;16.25;12.25;;;;;;;8.08;75.19;102253.97;4988847;28;20022;-86
2022/05/01 02:12:01;;;;;;;17.70;12.85;;;;;;;8.13;75.75;102260.94;4968559;28;20061;-86
2022/05/01 02:14:27;;;;;;;17.42;14.02;;;;;;;8.17;75.53;102257.31;4983155;28;20038;-86
2022/05/01 02:16:55;;;;;;;19.33;13.60;;;;;;;8.21;75.64;102243.09;4984861;28;20033;-86
2022/05/01 02:19:20;;;;;;;15.45;12.75;;;;;;;8.22;75.56;102249.28;4980906;28;20071;-86
2022/05/01 02:21:45;;;;;;;16.48;13.00;;;;;;;8.26;75.15;102253.63;4984128;28;20030;-86
2022/05/01 02:24:12;;;;;;;19.17;13.93;;;;;;;8.27;75.48;102244.75;4979664;28;20042;-86
2022/05/01 02:26:38;;;;;;;16.95;13.25;;;;;;;8.24;75.96;102250.16;4988024;28;20057;-86
2022/05/01 02:29:09;;;;;;;17.73;13.60;;;;;;;8.18;75.98;102239.63;4975254;28;20031;-86
2022/05/01 02:31:35;;;;;;;18.90;14.23;;;;;;;8.17;75.63;102240.53;4982674;28;20425;-87
2022/05/01 02:34:00;;;;;;;19.98;13.52;;;;;;;8.18;75.81;102236.97;4982923;28;20045;-86
2022/05/01 02:36:26;;;;;;;16.70;14.13;;;;;;;8.11;76.15;102225.63;4983663;28;20778;-87
2022/05/01 02:38:51;;;;;;;18.10;13.93;;;;;;;8.16;75.88;102233.50;4987444;28;20038;-86
2022/05/01 02:41:16;;;;;;;19.35;14.32;;;;;;;8.11;76.04;102240.63;4983634;28;20032;-86
2022/05/01 02:43:42;;;;;;;20.70;14.32;;;;;;;8.07;76.17;102225.69;4984890;28;20089;-86
2022/05/01 02:46:07;;;;;;;19.88;15.65;;;;;;;8.08;75.96;102223.03;4975945;28;20045;-86
2022/05/01 02:48:32;;;;;;;18.17;13.82;;;;;;;8.07;76.16;102228.34;4983449;28;20035;-86
2022/05/01 02:50:58;;;;;;;22.23;14.82;;;;;;;8.08;76.45;102228.34;4981840;28;20026;-86
2022/05/01 02:53:23;;;;;;;20.60;15.20;;;;;;;8.09;76.33;102231.84;4987012;28;20034;-86
2022/05/01 02:55:49;;;;;;;19.38;15.00;;;;;;;8.05;76.30;102224.84;4979844;28;20455;-86
2022/05/01 02:58:14;;;;;;;21.65;15.45;;;;;;;8.05;76.35;102230.16;4987959;28;20018;-86
2022/05/01 03:00:40;;;;;;;21.50;15.35;;;;;;;7.98;76.29;102214.38;4988295;28;20030;-86
2022/05/01 03:03:05;;;;;;;22.20;14.77;;;;;;;8.01;76.70;102226.69;4986483;28;20022;-86
2022/05/01 03:05:31;;;;;;;20.67;14.95;;;;;;;7.97;76.42;102217.03;4983191;28;20432;-86
2022/05/01 03:07:56;;;;;;;19.38;14.95;;;;;;;8.02;76.39;102224.91;4981120;28;20030;-86
2022/05/01 03:10:24;;;;;;;19.10;14.55;;;;;;;8.02;76.53;102224.91;4976781;28;20081;-86
2022/05/01 03:12:50;;;;;;;19.92;14.65;;;;;;;7.99;76.07;102213.47;4969466;28;20030;-86
2022/05/01 03:15:15;;;;;;;21.90;14.90;;;;;;;7.99;76.52;102217.91;4969472;28;20357;-86
2022/05/01 03:23:22;;;;;;;21.33;14.68;;;;;;;7.91;76.72;102218.03;4926270;29;20073;-86
2022/05/01 03:25:47;;;;;;;17.30;14.27;;;;;;;7.94;77.04;102219.72;4911654;29;20101;-86
2022/05/01 03:28:13;;;;;;;21.40;14.23;;;;;;;7.95;76.60;102213.56;4923002;29;20058;-86
2022/05/01 03:30:38;;;;;;;23.67;14.10;;;;;;;7.87;76.81;102204.84;4927783;29;20039;-86
2022/05/01 03:33:07;;;;;;;20.13;13.93;;;;;;;7.93;76.38;102207.38;4924140;29;20098;-86
2022/05/01 03:35:35;;;;;;;20.83;14.55;;;;;;;7.90;76.65;102205.69;4926755;29;20175;-86
2022/05/01 03:38:02;;;;;;;20.92;14.32;;;;;;;7.88;76.79;102209.25;4912067;29;20032;-86
2022/05/01 03:40:27;;;;;;;18.80;14.82;;;;;;;7.87;77.00;102200.44;4924313;29;20036;-86
2022/05/01 03:42:52;;;;;;;20.90;14.95;;;;;;;7.88;76.92;102204.81;4926172;29;20046;-86
2022/05/01 03:45:17;;;;;;;18.77;14.25;;;;;;;7.90;76.80;102208.34;4928620;29;20032;-86
2022/05/01 03:47:43;;;;;;;20.27;15.70;;;;;;;7.84;76.87;102200.47;4928185;29;20103;-86
2022/05/01 03:50:08;;;;;;;20.55;15.00;;;;;;;7.84;76.83;102200.47;4926806;29;20036;-86
2022/05/01 03:52:34;;;;;;;21.55;15.25;;;;;;;7.84;76.92;102213.72;4919103;29;20052;-86
2022/05/01 03:54:59;;;;;;;22.63;16.13;;;;;;;7.79;77.04;102207.63;4926169;29;20083;-86
2022/05/01 03:57:24;;;;;;;23.55;16.05;;;;;;;7.76;77.19;102205.03;4929241;29;20114;-86
2022/05/01 03:59:50;;;;;;;25.98;16.25;;;;;;;7.76;76.99;102204.16;4975449;28;20049;-87
2022/05/01 04:02:15;;;;;;;26.20;16.42;;;;;;;7.79;77.07;102206.78;4985606;28;20093;-86
2022/05/01 04:04:42;;;;;;;20.60;16.00;;;;;;;7.77;77.02;102203.25;4987821;28;20041;-86
2022/05/01 04:07:08;;;;;;;23.27;16.13;;;;;;;7.78;76.74;102208.56;4985502;28;20040;-87
2022/05/01 04:09:33;;;;;;;21.77;14.90;;;;;;;7.75;76.70;102203.28;4977564;28;20476;-87
2022/05/01 04:11:58;;;;;;;25.52;17.00;;;;;;;7.70;77.03;102205.16;4986596;28;20648;-86
2022/05/01 04:14:24;;;;;;;22.42;15.35;;;;;;;7.70;77.17;102210.47;4971533;28;20582;-86
2022/05/01 04:16:50;;;;;;;22.40;16.58;;;;;;;7.68;77.14;102207.81;4965052;28;20299;-86
2022/05/01 04:19:15;;;;;;;22.20;16.83;;;;;;;7.62;77.70;102207.06;4977298;28;20531;-86
2022/05/01 04:21:41;;;;;;;21.27;16.52;;;;;;;7.60;77.85;102203.53;4980890;28;20109;-86
2022/05/01 04:24:07;;;;;;;21.92;16.67;;;;;;;7.46;78.20;102198.50;4986250;28;20030;-85
2022/05/01 04:26:32;;;;;;;23.17;16.80;;;;;;;7.48;78.24;102202.88;4987237;28;20570;-86
2022/05/01 04:31:41;;;;;;;22.33;16.05;;;;;;;7.39;78.43;102197.69;4972020;28;20412;-85
2022/05/01 04:34:06;;;;;;;24.38;16.83;;;;;;;7.32;78.90;102198.72;4985890;28;20267;-86
2022/05/01 04:36:32;;;;;;;23.38;16.58;;;;;;;7.21;79.46;102188.28;4986003;28;20035;-85
2022/05/01 04:38:57;;;;;;;22.02;17.17;;;;;;;7.21;79.49;102198.00;4970265;28;20431;-86
2022/05/01 04:41:22;;;;;;;22.80;16.17;;;;;;;7.12;80.16;102198.16;4987614;28;20118;-85
2022/05/01 04:43:47;;;;;;;24.48;16.90;;;;;;;7.09;80.20;102199.06;4962566;28;20034;-85
2022/05/01 04:46:13;;;;;;;22.92;16.70;;;;;;;7.01;80.47;102192.13;4988310;28;20022;-85
2022/05/01 04:48:38;;;;;;;24.55;16.95;;;;;;;6.94;80.61;102194.88;4985519;28;20022;-86
2022/05/01 04:51:05;;;;;;;19.58;16.02;;;;;;;6.99;81.11;102203.63;4984432;28;20034;-86
2022/05/01 04:53:30;;;;;;;21.73;15.80;;;;;;;6.95;80.81;102207.19;4981020;28;20030;-85
2022/05/01 04:57:04;;;;;;;24.00;17.33;;;;;;;6.98;81.04;102208.91;4987440;28;20338;-85
2022/05/01 04:58:41;;;;;;;20.67;16.13;;;;;;;7.00;80.82;102204.47;4987384;28;20097;-85
2022/05/01 05:01:06;;;;;;;25.10;17.05;;;;;;;6.99;80.96;102200.97;4986890;28;20388;-85
2022/05/01 05:03:31;;;;;;;23.20;16.75;;;;;;;7.09;81.07;102208.78;4980035;28;20117;-84
2022/05/01 05:05:57;;;;;;;24.17;16.33;;;;;;;7.12;80.79;102208.72;4978239;28;20105;-84
2022/05/01 05:11:06;;;;;;;24.70;17.25;;;;;;;7.13;81.32;102207.81;4987223;28;20089;-85
2022/05/01 05:13:33;;;;;;;22.67;17.25;;;;;;;7.18;81.06;102209.50;4987305;28;20046;-85
2022/05/01 05:15:59;;;;;;;26.80;17.77;;;;;;;7.20;80.94;102212.16;4987691;28;20026;-85
2022/05/01 05:18:24;;;;;;;25.13;17.20;;;;;;;7.27;80.75;102216.44;4986250;28;20030;-85
2022/05/01 05:20:49;;;;;;;23.35;17.13;;;;;;;7.38;80.45;102214.50;4985473;28;20027;-86
2022/05/01 05:23:15;;;;;;;24.13;16.95;;;;;;;7.44;80.63;102214.41;4981576;28;20081;-85
2022/05/01 05:25:40;;;;;;;26.08;17.63;;;;;;;7.54;80.07;102208.97;4982131;28;20026;-85
2022/05/01 05:28:07;;;;;;;23.85;16.35;;;;;;;7.60;79.92;102211.50;4988900;28;20452;-85
2022/05/01 05:30:33;;;;;;;24.90;17.42;;;;;;;7.69;79.76;102217.53;4977772;28;20257;-85
2022/05/01 05:32:58;;;;;;;23.30;16.65;;;;;;;7.82;79.75;102215.56;4982675;28;20050;-85
2022/05/01 05:35:23;;;;;;;26.27;17.52;;;;;;;7.96;79.12;102224.13;4986091;28;20113;-86
2022/05/01 05:37:48;;;;;;;25.27;18.33;;;;;;;8.08;78.66;102216.84;4988344;28;20022;-86
2022/05/01 05:40:14;;;;;;;24.58;17.92;;;;;;;8.22;78.18;102225.41;4981072;28;20038;-86
2022/05/01 05:42:39;;;;;;;27.00;19.17;;;;;;;8.28;77.58;102227.06;4983274;28;20481;-87
2022/05/01 05:45:05;;;;;;;23.77;17.80;;;;;;;8.30;77.25;102223.47;4968654;28;20026;-85
2022/05/01 05:47:30;;;;;;;22.63;17.50;;;;;;;8.26;77.46;102220.94;4988761;28;20148;-87
2022/05/01 05:49:56;;;;;;;25.90;17.70;;;;;;;8.33;77.54;102230.53;4986515;28;20027;-85
2022/05/01 05:52:21;;;;;;;26.65;17.27;;;;;;;8.37;77.10;102221.63;4983718;28;20034;-85
2022/05/01 05:54:46;;;;;;;22.85;18.00;;;;;;;8.41;76.47;102231.28;4983751;28;20030;-86
2022/05/01 05:57:12;;;;;;;26.52;17.40;;;;;;;8.45;76.53;102236.50;4983883;28;20082;-86
2022/05/01 05:59:37;;;;;;;25.10;17.75;;;;;;;8.51;76.43;102245.22;4986036;28;20407;-85
2022/05/01 06:02:03;;;;;;;27.02;18.75;;;;;;;8.50;76.21;102241.72;4977211;28;20497;-87
2022/05/01 06:04:29;;;;;;;26.42;17.50;;;;;;;8.67;76.38;102236.06;4981505;28;20026;-89
2022/05/01 06:06:54;;;;;;;24.10;17.63;;;;;;;8.81;75.56;102233.97;4982624;28;20018;-89
2022/05/01 06:09:19;;;;;;;27.35;17.73;;;;;;;8.93;74.89;102239.03;4971170;28;20111;-85
2022/05/01 06:11:44;;;;;;;26.80;18.58;;;;;;;9.00;74.61;102241.56;4968263;28;20423;-87
2022/05/01 06:14:10;;;;;;;23.88;17.63;;;;;;;9.09;73.90;102236.91;4976218;28;20223;-89
2022/05/01 06:16:35;;;;;;;26.90;17.83;;;;;;;9.23;73.84;102242.78;4977281;28;20435;-87
2022/05/01 06:19:00;;;;;;;24.10;17.60;;;;;;;9.56;72.61;102247.34;4986898;28;20030;-88
2022/05/01 06:21:26;;;;;;;22.85;17.00;;;;;;;9.63;71.85;102240.97;4987436;28;20176;-88
2022/05/01 06:23:51;;;;;;;25.73;17.25;;;;;;;9.79;71.21;102250.31;4988541;28;20092;-88
2022/05/01 06:26:17;;;;;;;24.08;17.15;;;;;;;9.85;70.70;102251.94;4988928;28;20030;-87
2022/05/01 06:28:42;;;;;;;25.73;18.70;;;;;;;9.93;70.50;102252.59;4989804;28;20049;-88
2022/05/01 06:31:08;;;;;;;24.60;17.10;;;;;;;10.14;69.60;102251.19;4985301;28;20027;-88
2022/05/01 06:33:35;;;;;;;24.65;16.95;;;;;;;10.37;69.63;102250.59;4995266;28;20037;-88
2022/05/01 06:36:01;;;;;;;26.00;17.80;;;;;;;10.67;68.47;102248.84;4983966;28;20093;-88
2022/05/01 06:38:27;;;;;;;24.40;17.17;;;;;;;10.85;67.89;102256.28;4989446;28;20027;-89
2022/05/01 06:40:52;;;;;;;24.40;17.70;;;;;;;10.95;66.26;102257.78;4988623;28;20027;-90
2022/05/01 06:43:19;;;;;;;20.77;16.15;;;;;;;10.98;66.58;102252.34;4983346;28;20037;-89
2022/05/01 06:45:45;;;;;;;23.88;16.70;;;;;;;11.00;65.89;102256.78;4976469;28;20030;-90
2022/05/01 06:48:11;;;;;;;23.10;17.02;;;;;;;11.14;66.01;102260.75;4989668;28;20070;-85
2022/05/01 06:50:36;;;;;;;23.20;17.83;;;;;;;11.47;65.34;102258.81;4979405;28;20026;-85
2022/05/01 06:53:02;;;;;;;24.05;17.15;;;;;;;11.80;64.14;102264.00;4978813;28;20483;-89
2022/05/01 06:55:28;;;;;;;21.00;16.38;;;;;;;12.02;63.67;102255.28;4969233;28;20022;-87
2022/05/01 06:57:53;;;;;;;22.48;16.90;;;;;;;12.29;63.30;102251.66;4982241;28;20026;-87
2022/05/01 07:00:19;;;;;;;20.60;16.73;;;;;;;12.56;61.25;102256.91;4981359;28;20030;-89
2022/05/01 07:02:49;;;;;;;23.17;15.50;;;;;;;12.77;60.75;102249.91;4964457;28;20038;-89
2022/05/01 07:05:15;;;;;;;23.23;16.38;;;;;;;12.99;59.00;102260.66;4984109;28;20038;-90
2022/05/01 07:07:40;;;;;;;19.83;15.52;;;;;;;13.14;58.03;102250.25;4981819;28;20036;-88
2022/05/01 07:10:07;;;;;;;19.88;15.15;;;;;;;13.31;57.82;102265.66;4985114;28;20030;-89
2022/05/01 07:12:32;;;;;;;21.92;15.65;;;;;;;13.51;56.79;102247.94;4983089;28;20030;-87
2022/05/01 07:14:58;;;;;;;20.85;15.60;;;;;;;13.65;57.01;102264.28;4976487;28;20298;-86
2022/05/01 07:17:23;;;;;;;19.33;15.65;;;;;;;13.67;56.77;102249.94;4982058;28;20070;-89
2022/05/01 07:19:49;;;;;;;22.00;15.50;;;;;;;13.87;55.96;102254.41;4981868;28;20023;-90
2022/05/01 07:22:16;;;;;;;22.58;15.23;;;;;;;14.08;56.92;102262.47;4973517;28;20036;-90
2022/05/01 07:24:41;;;;;;;21.35;15.30;;;;;;;14.34;54.52;102248.84;4979797;28;20030;-86
2022/05/01 07:27:06;;;;;;;18.17;14.25;;;;;;;14.48;54.64;102253.56;4982083;28;20404;-88
2022/05/01 07:29:32;;;;;;;19.10;15.13;;;;;;;14.55;53.91;102246.19;4984594;28;20022;-87
2022/05/01 07:31:57;;;;;;;21.30;15.90;;;;;;;14.51;53.71;102253.47;4969636;28;20030;-88
2022/05/01 07:34:22;;;;;;;20.20;15.02;;;;;;;14.62;54.03;102253.84;4976489;28;20078;-90
2022/05/01 07:36:48;;;;;;;19.70;15.10;;;;;;;15.10;51.75;102251.66;4978759;28;20105;-89
2022/05/01 07:39:13;;;;;;;18.92;14.75;;;;;;;15.20;50.87;102252.94;4977426;28;20026;-89
2022/05/01 07:41:38;;;;;;;16.65;13.07;;;;;;;15.18;50.37;102261.06;4978288;28;20058;-87
2022/05/01 07:44:04;;;;;;;16.85;13.50;;;;;;;15.34;49.41;102260.31;4965200;28;20039;-88
2022/05/01 07:46:29;;;;;;;15.63;13.02;;;;;;;15.50;49.50;102264.00;4980437;28;20392;-88
2022/05/01 07:48:54;;;;;;;17.30;13.45;;;;;;;15.43;49.62;102266.13;4980035;28;20097;-90
2022/05/01 07:51:19;;;;;;;18.00;13.88;;;;;;;15.35;49.38;102254.03;4978855;28;20032;-87
2022/05/01 07:53:45;;;;;;;18.55;13.18;;;;;;;15.41;50.05;102256.41;4978860;28;20034;-85
2022/05/01 07:56:10;;;;;;;18.02;13.05;;;;;;;15.47;49.08;102263.28;4982717;28;20508;-86
2022/05/01 07:58:35;;;;;;;17.38;12.55;;;;;;;15.44;46.84;102253.56;4976353;28;20042;-88
2022/05/01 08:01:03;;;;;;;15.23;11.98;;;;;;;15.41;47.05;102262.63;4991400;28;20109;-89
2022/05/01 08:06:12;;;;;;;15.75;10.93;;;;;;;15.51;46.71;102257.72;4981134;28;20048;-88
2022/05/01 08:08:41;;;;;;;14.07;10.38;;;;;;;15.91;44.74;102266.47;4967866;28;20034;-86
2022/05/01 08:11:08;;;;;;;11.93;10.73;;;;;;;16.49;43.94;102258.06;4976610;28;20033;-85
2022/05/01 08:13:34;;;;;;;13.38;10.55;;;;;;;17.06;43.41;102252.34;4961502;28;20049;-86
2022/05/01 08:15:59;;;;;;;14.05;11.27;;;;;;;17.29;42.30;102257.28;4987074;28;20469;-85
2022/05/01 08:21:08;;;;;;;13.60;11.60;;;;;;;18.35;40.28;102257.34;4966368;28;20048;-86
2022/05/01 08:23:36;;;;;;;17.52;11.65;;;;;;;18.98;39.66;102249.84;4982683;28;20030;-85
2022/05/01 08:26:06;;;;;;;12.85;10.55;;;;;;;19.31;37.75;102244.09;4976302;28;20022;-86
2022/05/01 08:28:33;;;;;;;13.63;10.50;;;;;;;19.62;36.76;102241.16;4977616;28;20111;-87
2022/05/01 08:30:58;;;;;;;13.60;10.18;;;;;;;19.78;36.29;102235.59;4973220;28;20022;-89
2022/05/01 08:33:24;;;;;;;13.32;10.25;;;;;;;19.94;35.43;102240.81;4975736;28;20384;-84
2022/05/01 08:35:50;;;;;;;11.60;9.00;;;;;;;20.65;34.79;102239.50;4972871;28;20030;-84
2022/05/01 08:38:15;;;;;;;11.00;8.07;;;;;;;21.17;31.78;102237.53;4976063;28;20031;-85
2022/05/01 08:40:46;;;;;;;9.50;7.60;;;;;;;21.58;31.09;102243.50;4982683;28;20031;-84
2022/05/01 08:43:14;;;;;;;8.88;7.30;;;;;;;22.38;30.22;102240.09;4974590;28;20164;-85
2022/05/01 08:46:12;;;;;;;12.07;8.48;;;;;;;22.98;30.44;102247.03;4974053;28;20023;-85
2022/05/01 08:48:53;;;;;;;12.43;9.70;;;;;;;22.74;31.80;102236.28;4985045;28;20705;-86
2022/05/01 08:51:21;;;;;;;11.15;9.50;;;;;;;21.89;30.76;102243.84;4981200;28;20062;-86
2022/05/01 08:53:47;;;;;;;10.98;9.25;;;;;;;20.24;32.21;102242.38;4987920;28;20106;-86
2022/05/01 08:56:13;;;;;;;11.85;10.20;;;;;;;18.98;34.94;102247.16;4987046;28;20038;-86
2022/05/01 08:58:41;;;;;;;12.27;9.70;;;;;;;18.30;36.36;102243.25;4980441;28;20089;-86
2022/05/01 09:01:08;;;;;;;9.23;8.20;;;;;;;17.87;36.45;102240.47;4978568;28;20076;-87
2022/05/01 09:03:34;;;;;;;11.48;9.00;;;;;;;17.48;37.65;102243.66;4979094;28;20058;-85
2022/05/01 09:06:00;;;;;;;11.45;8.73;;;;;;;17.41;37.11;102240.44;4986029;28;20076;-85
2022/05/01 09:08:26;;;;;;;9.32;7.45;;;;;;;17.72;36.55;102244.03;4986368;28;20030;-87
2022/05/01 09:10:52;;;;;;;10.75;8.30;;;;;;;18.47;35.40;102236.81;4979711;28;20031;-86
2022/05/01 09:13:26;;;;;;;11.05;8.52;;;;;;;20.28;33.25;102238.50;4985672;28;20040;-87
2022/05/01 09:15:52;;;;;;;10.65;8.27;;;;;;;19.93;30.80;102241.75;4981729;28;20041;-86
2022/05/01 09:18:19;;;;;;;8.35;7.00;;;;;;;18.52;32.52;102248.22;4986281;28;20018;-85
2022/05/01 09:21:01;;;;;;;9.10;7.18;;;;;;;17.42;34.58;102243.97;4975279;28;21119;-86
2022/05/01 09:23:41;;;;;;;9.65;7.38;;;;;;;16.33;36.50;102249.94;4984145;28;20034;-87
2022/05/01 09:26:11;;;;;;;11.45;8.07;;;;;;;15.68;37.87;102244.34;4984176;28;20113;-86
2022/05/01 09:28:46;;;;;;;12.85;8.43;;;;;;;15.23;39.33;102247.44;4976421;28;20034;-86
2022/05/01 09:31:11;;;;;;;8.75;7.63;;;;;;;14.65;38.94;102247.47;4976206;28;20062;-87
2022/05/01 09:33:36;;;;;;;10.15;7.93;;;;;;;14.38;40.21;102247.75;4978937;28;20065;-86
2022/05/01 09:36:02;;;;;;;9.98;8.50;;;;;;;14.20;40.81;102246.75;4984796;28;20042;-86
2022/05/01 09:38:27;;;;;;;13.32;8.98;;;;;;;14.08;42.16;102255.31;4954043;28;20732;-86
2022/05/01 09:40:55;;;;;;;10.57;8.80;;;;;;;14.00;42.17;102251.22;4972167;28;20089;-86
2022/05/01 09:43:36;;;;;;;13.48;9.07;;;;;;;14.06;42.34;102256.34;4957925;28;20047;-87
2022/05/01 09:46:16;;;;;;;11.43;8.93;;;;;;;14.10;42.75;102252.59;4985290;28;20048;-86
2022/05/01 09:48:55;;;;;;;12.43;8.88;;;;;;;14.03;42.42;102256.44;4987566;28;20034;-87
2022/05/01 09:51:20;;;;;;;9.85;8.20;;;;;;;14.04;42.60;102258.19;4952982;28;20035;-87
2022/05/01 09:53:46;;;;;;;12.35;8.95;;;;;;;13.97;42.46;102257.59;4978985;28;20090;-88
2022/05/01 09:56:11;;;;;;;11.65;9.40;;;;;;;14.19;41.46;102250.38;4958395;28;20048;-87
2022/05/01 09:58:40;;;;;;;14.95;10.40;;;;;;;14.40;41.42;102250.38;4982029;28;20034;-87
2022/05/01 10:01:11;;;;;;;11.30;9.10;;;;;;;14.58;40.93;102259.41;4986318;28;20046;-87
2022/05/01 10:03:39;;;;;;;12.32;8.88;;;;;;;14.67;41.45;102251.84;4988914;28;20392;-87
2022/05/01 10:06:07;;;;;;;11.43;8.77;;;;;;;14.80;41.14;102253.97;4957789;28;20515;-87
2022/05/01 10:08:34;;;;;;;10.80;8.98;;;;;;;14.85;39.82;102247.44;4985100;28;20038;-87
2022/05/01 10:11:00;;;;;;;12.43;9.32;;;;;;;15.03;39.13;102248.38;4973206;28;20042;-86
2022/05/01 10:13:27;;;;;;;13.10;8.45;;;;;;;15.45;39.51;102245.44;4977487;28;20384;-87
2022/05/01 10:15:53;;;;;;;10.70;9.02;;;;;;;15.84;39.05;102244.44;4978500;28;20034;-87
2022/05/01 10:18:19;;;;;;;11.23;8.60;;;;;;;16.16;37.77;102239.22;4967117;28;20045;-88
2022/05/01 10:20:45;;;;;;;9.77;8.35;;;;;;;16.42;37.29;102244.06;4980915;28;20267;-87
2022/05/01 10:23:11;;;;;;;12.00;8.68;;;;;;;16.57;36.40;102234.34;4986024;28;20030;-87
2022/05/01 10:25:40;;;;;;;9.60;8.25;;;;;;;16.65;36.35;102236.63;4975962;28;20027;-88
2022/05/01 10:28:43;;;;;;;10.80;8.82;;;;;;;16.91;37.41;102238.78;4973709;28;20043;-88
2022/05/01 10:34:31;;;;;;;10.75;8.82;;;;;;;17.21;36.10;102235.31;4974985;28;20046;-86
2022/05/01 10:37:23;;;;;;;11.50;8.77;;;;;;;17.05;35.56;102234.44;4985283;28;20022;-85
2022/05/01 10:39:50;;;;;;;9.10;7.72;;;;;;;16.97;35.68;102225.94;4977925;28;20396;-91
2022/05/01 10:42:36;;;;;;;13.73;9.18;;;;;;;16.90;36.20;102214.66;4972100;28;20122;-89
2022/05/01 10:45:02;;;;;;;10.90;8.63;;;;;;;16.66;35.49;102222.22;4962452;28;20049;-89
2022/05/01 10:47:37;;;;;;;12.75;8.77;;;;;;;16.65;35.63;102220.50;4972904;28;20045;-86
2022/05/01 10:50:08;;;;;;;10.80;9.07;;;;;;;16.95;35.17;102220.66;4962034;28;20064;-86
2022/05/01 10:52:34;;;;;;;10.23;8.90;;;;;;;17.57;33.93;102216.19;4971585;28;20487;-86
2022/05/01 10:55:07;;;;;;;10.40;8.20;;;;;;;18.77;32.30;102207.13;4977523;28;20485;-87
2022/05/01 10:57:33;;;;;;;10.75;8.88;;;;;;;19.81;31.51;102207.47;4970254;28;20104;-88
2022/05/01 11:00:11;;;;;;;8.88;7.97;;;;;;;21.00;29.84;102198.19;4990102;28;20026;-88
2022/05/01 11:02:46;;;;;;;9.15;8.18;;;;;;;21.89;29.20;102204.06;4985568;28;20108;-89
2022/05/01 11:05:42;;;;;;;8.90;7.80;;;;;;;22.45;29.33;102197.94;4976292;28;20054;-89
2022/05/01 11:08:36;;;;;;;9.77;8.38;;;;;;;22.17;28.72;102193.81;4976438;28;20077;-91
2022/05/01 11:11:05;;;;;;;9.25;7.57;;;;;;;21.56;27.87;102193.97;4985803;28;20450;-92
2022/05/01 11:13:33;;;;;;;10.85;9.32;;;;;;;20.86;28.76;102199.19;4977043;28;20144;-92
2022/05/01 11:15:59;;;;;;;11.38;9.88;;;;;;;19.83;29.46;102173.13;4975510;28;20038;-93
2022/05/01 11:18:30;;;;;;;10.10;9.07;;;;;;;19.27;31.22;102191.28;4978549;28;20184;-90
2022/05/01 11:21:15;;;;;;;13.43;11.38;;;;;;;18.98;33.78;102186.00;4981922;28;20069;-89
2022/05/01 11:23:43;;;;;;;12.80;11.50;;;;;;;18.73;34.62;102185.81;4961499;28;20519;-90
2022/05/01 11:26:11;;;;;;;13.52;11.10;;;;;;;18.86;34.76;102187.63;4982975;28;20402;-91
2022/05/01 11:28:49;;;;;;;12.85;11.20;;;;;;;19.01;34.25;102180.38;4984085;28;20042;-90
2022/05/01 11:31:36;;;;;;;12.55;10.10;;;;;;;19.29;33.95;102178.56;4959441;28;20046;-88
2022/05/01 11:34:21;;;;;;;12.20;10.38;;;;;;;19.69;33.03;102168.69;4961584;28;20042;-87
2022/05/01 11:36:54;;;;;;;15.85;11.38;;;;;;;19.82;32.78;102160.59;4977290;28;20093;-90
2022/05/01 11:39:20;;;;;;;12.15;9.98;;;;;;;19.59;30.57;102167.53;4985381;28;20669;-88
2022/05/01 11:41:51;;;;;;;12.02;9.25;;;;;;;19.55;30.84;102163.31;4972748;28;20038;-95
2022/05/01 11:44:21;;;;;;;12.85;10.18;;;;;;;19.56;30.48;102159.63;4980678;28;20101;-89
2022/05/01 11:46:51;;;;;;;10.65;9.48;;;;;;;19.99;29.71;102148.63;4970235;28;20034;-89
2022/05/01 11:49:16;;;;;;;13.57;10.55;;;;;;;21.33;28.55;102146.97;4977940;28;20032;-90